x

Port Orford - 15 Nm West Of Port Orford, Or (46015) Wave Buoy

11:50am - Sun 14th Feb 2016 All times are PST. -8 hours from GMT.

  • Sig Wave height 9.2ft
  • Swell Direction
  • Peak Period 11s
  • Average Period 8s
  • Wind
    11mph, 13mph gusts
  • Sea Temp 53°f
  • Air Temp 54°f
  • Sea Pressure 1029.4mb
  • Port Orford - 15 Nm West Of Port Orford, Or
  • Port Orford - 15 Nm West Of Port Orford, Or

More Historic Weather Station data

Upgrade to MSW Pro to gain access to the past 30 days of data for over 8000 Wavebouys and Weather Stations around the globe.

Join Pro

Comparision Forecast

View Surf forecast
   
Sun 02/14 11:50am 9ft 11s 8s 11 13 mph 1029.4mb 53f 54f
10:50am 9ft 13s 8s 9 11 mph 1029.4mb 53f 53f
9:50am 10.5ft 14s 8s 13 16 mph 1029mb 53f 53f
8:50am 10.5ft 12s 7s 18 22 mph 1028.7mb 53f 53f
7:50am 10.5ft 14s 7s 20 25 mph 1027.8mb 53f 52f
6:50am 11ft 14s 7s 20 27 mph 1027.1mb 53f 52f
5:50am 11ft 11s 7s 25 29 mph 1026.5mb 53f 52f
4:50am 11.5ft 12s 7s 25 29 mph 1026.5mb 53f 52f
3:50am 12ft 14s 7s 27 31 mph 1026.8mb 53f 51f
2:50am 11ft 14s 7s 27 31 mph 1027mb 53f 51f
1:50am 12ft 11s 7s 27 34 mph 1026.8mb 53f 51f
12:50am 11.5ft 12s 7s 27 34 mph 1026.5mb 53f 51f
Sat 02/13 11:50pm 11ft 14s 7s 27 31 mph 1026.6mb 53f 51f
10:50pm 13ft 14s 8s 27 31 mph 1027.3mb 53f 51f
9:50pm 12ft 15s 8s 27 34 mph 1026.7mb 53f 50f
8:50pm 12ft 14s 8s 27 34 mph 1026.9mb 53f 50f
7:50pm 10ft 15s 7s 25 31 mph 1026.5mb 52f 51f
6:50pm 12ft 14s 8s 25 29 mph 1026mb 52f 52f
5:50pm 12ft 14s 9s 22 27 mph 1026.1mb 53f 52f
4:50pm 11.5ft 16s 9s 18 27 mph 1026.8mb 52f 53f
3:50pm 13ft 15s 10s 18 22 mph 1026.5mb 53f 53f
2:50pm 12ft 15s 10s 18 20 mph 1026.3mb 53f 53f
1:50pm 12.5ft 15s 10s 18 20 mph 1026.8mb 53f 52f
12:50pm 13ft 16s 11s 16 18 mph 1027.3mb 53f 52f
11:50am 12ft 16s 11s 13 16 mph 1028.2mb 53f 52f
10:50am 11ft 15s 11s 9 11 mph 1028.6mb 53f 52f
9:50am 13ft 16s 11s 9 11 mph 1029mb 53f 52f
8:50am 14.5ft 15s 12s 7 9 mph 1028.8mb 52f 52f
7:50am 14ft 15s 12s 7 11 mph 1027.7mb 52f 51f
6:50am 12ft 16s 11s 7 9 mph 1027.8mb 52f 52f
5:50am 13ft 16s 12s 7 9 mph 1027.7mb 52f 51f
4:50am 11ft 16s 11s 4 9 mph 1028.4mb 52f 52f
3:50am 13ft 16s 11s 7 9 mph 1027.9mb 52f 52f
2:50am 12.5ft 16s 11s 7 9 mph 1027.6mb 52f 52f
1:50am 11ft 15s 10s 4 7 mph 1028mb 52f 52f
12:50am 12.5ft 16s 11s 4 7 mph 1028.5mb 52f 52f
Fri 02/12 11:50pm 12ft 16s 11s 4 7 mph 1028.1mb 52f 52f
10:50pm 12ft 17s 11s 4 7 mph 1027.1mb 52f 52f
9:50pm 11.5ft 15s 11s 4 7 mph 1027.1mb 53f 53f
8:50pm 12.5ft 17s 11s 4 7 mph 1026.9mb 53f 53f
7:50pm 13.5ft 16s 12s 9 13 mph 1026.7mb 53f 53f
6:50pm 14ft 17s 12s 7 11 mph 1025.9mb 53f 53f
5:50pm 13ft 16s 11s 7
mph
1025.1mb 53f 53f
4:50pm 14ft 16s 12s 7
mph
1024.8mb 53f 54f
3:50pm 13ft 14s 11s 7 9 mph 1024.7mb 54f 54f
2:50pm 13ft 15s 11s 7 9 mph 1024.1mb 53f 54f
1:50pm 14.5ft 17s 12s 7 9 mph 1023.8mb 53f 54f
12:50pm 15ft 17s 12s 7 9 mph 1023.7mb 53f 54f
11:50am 15ft 16s 12s 4 7 mph 1023.6mb 53f 54f
10:50am 12ft 17s 10s 7 9 mph 1023.3mb 53f 54f
9:50am 13ft 17s 10s 9 13 mph 1022.9mb 53f 54f
8:50am 13ft 17s 10s 16 20 mph 1022.4mb 53f 54f
7:50am 12ft 16s 9s 20 27 mph 1021.6mb 53f 54f
6:50am 15ft 17s 10s 20 27 mph 1020.9mb 53f 54f
5:50am 12ft 17s 8s 22 27 mph 1020.5mb 53f 54f
4:50am 12ft 16s 8s 22 27 mph 1020.2mb 53f 54f
3:50am 12ft 17s 9s 22 27 mph 1020mb 53f 53f
2:50am 11.5ft 16s 8s 22 25 mph 1020.6mb 53f 53f
1:50am 12.5ft 19s 8s 22 27 mph 1020.5mb 53f 54f
12:50am 13ft 17s 9s 22 25 mph 1020.6mb 53f 54f
Thu 02/11 11:50pm 12ft 17s 9s 22 29 mph 1020.1mb 53f 54f
10:50pm 14ft 19s 10s 22 27 mph 1020.1mb 53f 53f
9:50pm 11.5ft 17s 10s 20 27 mph 1020.1mb 53f 54f
8:50pm 12ft 19s 11s 20 25 mph 1020mb 53f 54f
7:50pm 13ft 17s 12s 20 22 mph 1019.6mb 53f 55f
6:50pm 14ft 19s 13s 16 20 mph 1019.2mb 53f 55f
5:50pm 13.5ft 19s 14s 13 16 mph 1018.9mb 53f 55f
4:50pm 13ft 19s 13s 13
mph
1018.8mb 53f 55f
3:50pm 14ft 19s 13s 9 11 mph 1018.5mb 53f 55f
2:50pm 12ft 19s 12s 9 11 mph 1017.9mb 53f 54f
1:50pm 11ft 19s 11s 11
mph
1018mb 53f 55f
12:50pm 11ft 19s 11s 11
mph
1018.7mb 53f 55f
11:50am 9ft 21s 11s 11
mph
1019.5mb 53f 54f
10:50am 10ft 21s 11s 9 13 mph 1019.2mb 53f 54f
9:50am 9.5ft 21s 11s 7 9 mph 1019.6mb 52f 54f
8:50am 8ft 21s 10s 9 11 mph 1019.4mb 52f 54f
7:50am 10ft 21s 12s 4
mph
1018.8mb 52f 54f
6:50am 8ft 11s 10s 4 7 mph 1019mb 53f 53f
5:50am 7.5ft 11s 9s 9 11 mph 1019.5mb 53f 53f
4:50am 8ft 21s 10s 9 11 mph 1019.6mb 53f 53f
3:50am 8ft 21s 10s 2 4 mph 1020mb 53f 53f
2:50am 8ft 11s 9s 7 9 mph 1020.3mb 52f 53f
1:50am 8.5ft 12s 9s 7
mph
1019.9mb 53f 53f
12:50am 8ft 11s 9s 2 4 mph 1019.6mb 53f 53f
Wed 02/10 11:50pm 7.5ft 10s 8s 4
mph
1020.2mb 53f 53f
10:50pm 7.5ft 10s 9s 4
mph
1021.3mb 53f 53f
9:50pm 7ft 12s 8s 9 11 mph 1021.8mb 53f 52f